Time;durP1;ratioP1;P1;durP2;ratioP2;P2;SDS_P1;SDS_P2;PMS_P1;PMS_P2;Temp;Humidity;BMP_temperature;BMP_pressure;BME280_temperature;BME280_humidity;BME280_pressure;Samples;Min_cycle;Max_cycle;Signal;HPM_P1;HPM_P2
2022/09/16 00:00:23;;;;;;;2.33;1.30;;;;;;;;;;4935304;28;20292;-76
2022/09/16 00:02:51;;;;;;;3.07;1.27;;;;;;;;;;4948783;28;20708;-76
2022/09/16 00:05:16;;;;;;;3.67;1.50;;;;;;;;;;4935606;28;20237;-77
2022/09/16 00:07:47;;;;;;;1.93;1.20;;;;;;;;;;4931461;28;20222;-77
2022/09/16 00:10:15;;;;;;;3.63;1.30;;;;;;;;;;4945436;28;20223;-77
2022/09/16 00:12:40;;;;;;;3.60;1.30;;;;;;;;;;4937118;28;20662;-77
2022/09/16 00:15:11;;;;;;;1.87;1.07;;;;;;;;;;4944162;28;20221;-76
2022/09/16 00:17:41;;;;;;;5.27;1.50;;;;;;;;;;4936919;28;20222;-77
2022/09/16 00:20:11;;;;;;;2.47;1.30;;;;;;;;;;4951897;28;20661;-76
2022/09/16 00:22:36;;;;;;;3.33;1.30;;;;;;;;;;4936373;28;20727;-76
2022/09/16 00:25:07;;;;;;;3.37;1.30;;;;;;;;;;4934843;28;20226;-77
2022/09/16 00:27:34;;;;;;;3.53;1.17;;;;;;;;;;4939839;28;20297;-77
2022/09/16 00:30:00;;;;;;;2.20;1.43;;;;;;;;;;4944247;28;20237;-77
2022/09/16 00:32:27;;;;;;;2.17;1.30;;;;;;;;;;4960402;28;20226;-77
2022/09/16 00:34:55;;;;;;;3.87;1.40;;;;;;;;;;4943325;28;20224;-76
2022/09/16 00:37:21;;;;;;;2.23;1.23;;;;;;;;;;4958236;28;20293;-76
2022/09/16 00:39:48;;;;;;;2.03;1.27;;;;;;;;;;4935352;28;20309;-76
2022/09/16 00:42:13;;;;;;;4.47;1.20;;;;;;;;;;4929223;28;20222;-77
2022/09/16 00:44:54;;;;;;;3.13;1.30;;;;;;;;;;4927056;28;20315;-76
2022/09/16 00:47:31;;;;;;;3.30;1.17;;;;;;;;;;4957138;28;20222;-77
2022/09/16 00:50:06;;;;;;;2.63;1.37;;;;;;;;;;4937925;28;20227;-76
2022/09/16 00:52:32;;;;;;;2.67;1.20;;;;;;;;;;4936037;28;20771;-77
2022/09/16 00:54:58;;;;;;;2.33;1.10;;;;;;;;;;4947884;28;20234;-77
2022/09/16 00:57:26;;;;;;;3.37;0.97;;;;;;;;;;4936353;28;21031;-77
2022/09/16 00:59:55;;;;;;;6.20;1.30;;;;;;;;;;4936732;28;20226;-76
2022/09/16 01:02:20;;;;;;;2.47;1.40;;;;;;;;;;4934729;28;20222;-77
2022/09/16 01:04:52;;;;;;;2.27;1.07;;;;;;;;;;4950526;28;20226;-76
2022/09/16 01:07:36;;;;;;;5.10;1.50;;;;;;;;;;4951493;28;20649;-76
2022/09/16 01:10:06;;;;;;;3.47;1.60;;;;;;;;;;4933862;28;21036;-76
2022/09/16 01:12:34;;;;;;;2.30;1.40;;;;;;;;;;4923734;28;20250;-77
2022/09/16 01:15:05;;;;;;;4.93;1.27;;;;;;;;;;4939062;28;20234;-76
2022/09/16 01:17:50;;;;;;;3.73;1.30;;;;;;;;;;4960646;28;20768;-77
2022/09/16 01:20:52;;;;;;;5.93;1.27;;;;;;;;;;4955831;28;20237;-77
2022/09/16 01:23:42;;;;;;;5.23;1.20;;;;;;;;;;4966442;28;20222;-77
2022/09/16 01:26:29;;;;;;;2.20;1.30;;;;;;;;;;4936885;28;20713;-77
2022/09/16 01:29:15;;;;;;;3.10;1.40;;;;;;;;;;4956328;28;20678;-76
2022/09/16 01:32:07;;;;;;;3.37;1.33;;;;;;;;;;4951828;28;20230;-76
2022/09/16 01:34:46;;;;;;;3.53;1.33;;;;;;;;;;4965596;28;20246;-76
2022/09/16 01:37:19;;;;;;;2.43;1.20;;;;;;;;;;4966280;28;20301;-76
2022/09/16 01:40:39;;;;;;;1.83;1.10;;;;;;;;;;4945309;28;20325;-76
2022/09/16 01:43:26;;;;;;;3.87;1.53;;;;;;;;;;4927824;29;20218;-75
2022/09/16 01:45:59;;;;;;;3.13;1.00;;;;;;;;;;4960072;28;20229;-77
2022/09/16 01:48:57;;;;;;;4.67;1.60;;;;;;;;;;4958235;28;20229;-77
2022/09/16 01:51:45;;;;;;;2.47;1.30;;;;;;;;;;4952675;28;20229;-76
2022/09/16 01:54:25;;;;;;;2.93;1.40;;;;;;;;;;4945789;28;20685;-77
2022/09/16 01:57:00;;;;;;;2.30;1.10;;;;;;;;;;4947787;28;20277;-77
2022/09/16 01:59:42;;;;;;;4.00;1.30;;;;;;;;;;4953009;28;20244;-76
2022/09/16 02:02:42;;;;;;;4.87;1.70;;;;;;;;;;4942388;28;20222;-77
2022/09/16 02:05:11;;;;;;;2.47;1.30;;;;;;;;;;4935558;28;20230;-77
2022/09/16 02:07:43;;;;;;;3.47;1.40;;;;;;;;;;4935765;28;20245;-77
2022/09/16 02:10:24;;;;;;;1.60;1.10;;;;;;;;;;4934837;28;20234;-77
2022/09/16 02:12:51;;;;;;;2.03;1.03;;;;;;;;;;4951735;28;20249;-77
2022/09/16 02:15:21;;;;;;;3.30;1.23;;;;;;;;;;4934968;28;20222;-77
2022/09/16 02:17:50;;;;;;;3.00;1.33;;;;;;;;;;4954288;28;20245;-77
2022/09/16 02:20:18;;;;;;;3.33;1.40;;;;;;;;;;4965862;28;20226;-77
2022/09/16 02:22:48;;;;;;;4.93;1.57;;;;;;;;;;4956509;28;20219;-77
2022/09/16 02:25:17;;;;;;;2.40;1.33;;;;;;;;;;4949750;28;20260;-76
2022/09/16 02:27:45;;;;;;;5.73;1.50;;;;;;;;;;4937137;28;20301;-75
2022/09/16 02:30:15;;;;;;;3.20;1.60;;;;;;;;;;4937194;28;20222;-76
2022/09/16 02:32:47;;;;;;;3.83;1.77;;;;;;;;;;4945240;28;20222;-76
2022/09/16 02:35:17;;;;;;;2.97;1.80;;;;;;;;;;4951439;28;20715;-75
2022/09/16 02:37:55;;;;;;;2.30;1.53;;;;;;;;;;4935533;28;20285;-76
2022/09/16 02:40:28;;;;;;;2.53;1.43;;;;;;;;;;4938401;28;20992;-77
2022/09/16 02:42:56;;;;;;;3.47;1.53;;;;;;;;;;4940240;28;20281;-77
2022/09/16 02:45:23;;;;;;;3.10;1.50;;;;;;;;;;4946079;28;20222;-77
2022/09/16 02:48:08;;;;;;;5.10;1.70;;;;;;;;;;4938386;28;20619;-76
2022/09/16 02:50:39;;;;;;;3.07;1.53;;;;;;;;;;4956334;28;20292;-77
2022/09/16 02:53:10;;;;;;;4.33;1.90;;;;;;;;;;4961016;28;20237;-76
2022/09/16 02:55:56;;;;;;;3.57;1.50;;;;;;;;;;4962198;28;20262;-77
2022/09/16 02:58:22;;;;;;;3.93;1.60;;;;;;;;;;4935921;28;20374;-76
2022/09/16 03:00:51;;;;;;;3.07;1.50;;;;;;;;;;4942094;28;20309;-76
2022/09/16 03:03:19;;;;;;;3.30;1.70;;;;;;;;;;4937454;28;20326;-76
2022/09/16 03:06:11;;;;;;;6.00;1.97;;;;;;;;;;4944076;28;20307;-76
2022/09/16 03:08:38;;;;;;;3.30;1.63;;;;;;;;;;4958034;28;20223;-76
2022/09/16 03:11:27;;;;;;;3.93;1.80;;;;;;;;;;4923320;28;20301;-76
2022/09/16 03:14:13;;;;;;;8.67;2.17;;;;;;;;;;4962614;28;20234;-77
2022/09/16 03:16:55;;;;;;;3.43;1.87;;;;;;;;;;4969262;28;20226;-76
2022/09/16 03:19:24;;;;;;;4.17;1.60;;;;;;;;;;4953766;28;20219;-76
2022/09/16 03:22:12;;;;;;;3.90;1.70;;;;;;;;;;4953117;28;20254;-76
2022/09/16 03:24:45;;;;;;;2.33;1.50;;;;;;;;;;4940666;28;20245;-75
2022/09/16 03:27:15;;;;;;;2.73;1.80;;;;;;;;;;4958780;28;20222;-76
2022/09/16 03:30:04;;;;;;;5.40;1.90;;;;;;;;;;4935691;28;20743;-76
2022/09/16 03:32:39;;;;;;;2.77;1.70;;;;;;;;;;4927820;28;20226;-75
2022/09/16 03:35:18;;;;;;;3.50;2.20;;;;;;;;;;4937104;28;20284;-75
2022/09/16 03:37:46;;;;;;;2.40;1.87;;;;;;;;;;4992536;23;20349;-87
2022/09/16 03:40:14;;;;;;;4.80;1.90;;;;;;;;;;4963402;28;20581;-86
2022/09/16 03:42:40;;;;;;;3.07;1.70;;;;;;;;;;4959956;28;20729;-86
2022/09/16 03:45:19;;;;;;;6.33;2.40;;;;;;;;;;4978730;28;20249;-85
2022/09/16 03:47:48;;;;;;;3.97;2.30;;;;;;;;;;4984371;28;20248;-85
2022/09/16 03:50:36;;;;;;;5.20;1.90;;;;;;;;;;4968636;28;20234;-88
2022/09/16 03:53:02;;;;;;;7.97;2.37;;;;;;;;;;4976702;28;20283;-85
2022/09/16 03:55:36;;;;;;;6.70;1.93;;;;;;;;;;4956657;28;20225;-86
2022/09/16 03:58:02;;;;;;;2.20;2.00;;;;;;;;;;4972609;28;20285;-84
2022/09/16 04:00:28;;;;;;;4.53;2.30;;;;;;;;;;4961956;28;20297;-84
2022/09/16 04:03:05;;;;;;;4.03;2.30;;;;;;;;;;4949511;28;20226;-87
2022/09/16 04:05:30;;;;;;;5.93;2.53;;;;;;;;;;4958931;28;20653;-87
2022/09/16 04:07:56;;;;;;;2.27;1.80;;;;;;;;;;4959813;28;20230;-86
2022/09/16 04:10:25;;;;;;;5.73;2.13;;;;;;;;;;4970356;28;20625;-87
2022/09/16 04:12:50;;;;;;;3.30;1.97;;;;;;;;;;4960792;28;20233;-87
2022/09/16 04:15:16;;;;;;;4.70;2.10;;;;;;;;;;4980320;28;20240;-86
2022/09/16 04:17:44;;;;;;;2.93;2.20;;;;;;;;;;4945847;28;20230;-85
2022/09/16 04:20:12;;;;;;;3.73;1.93;;;;;;;;;;4972870;28;20233;-85
2022/09/16 04:22:37;;;;;;;3.03;2.20;;;;;;;;;;4944295;28;20222;-86
2022/09/16 04:25:05;;;;;;;2.83;1.90;;;;;;;;;;4956863;28;20246;-85
2022/09/16 04:27:33;;;;;;;5.47;2.03;;;;;;;;;;4971967;28;20228;-87
2022/09/16 04:30:01;;;;;;;3.37;2.10;;;;;;;;;;4973592;28;20234;-84
2022/09/16 04:32:29;;;;;;;4.67;1.70;;;;;;;;;;4951608;28;20232;-85
2022/09/16 04:34:54;;;;;;;3.37;1.97;;;;;;;;;;4975727;28;20234;-84
2022/09/16 04:37:22;;;;;;;5.13;1.90;;;;;;;;;;4937223;28;20288;-87
2022/09/16 04:39:48;;;;;;;3.63;1.60;;;;;;;;;;4968195;28;20217;-85
2022/09/16 04:42:14;;;;;;;4.17;1.70;;;;;;;;;;4996680;28;20230;-82
2022/09/16 04:44:40;;;;;;;4.87;1.80;;;;;;;;;;4986554;28;20229;-84
2022/09/16 04:47:06;;;;;;;3.97;1.53;;;;;;;;;;4949799;28;20241;-86
2022/09/16 04:49:32;;;;;;;3.23;1.50;;;;;;;;;;4960802;28;20277;-82
2022/09/16 04:51:59;;;;;;;1.70;1.07;;;;;;;;;;4973235;28;20221;-86
2022/09/16 04:54:25;;;;;;;3.40;1.70;;;;;;;;;;4971872;28;20217;-86
2022/09/16 04:56:53;;;;;;;2.40;1.23;;;;;;;;;;4963975;28;20222;-82
2022/09/16 04:59:30;;;;;;;4.43;1.30;;;;;;;;;;4974092;28;20631;-83
2022/09/16 05:01:56;;;;;;;4.40;1.43;;;;;;;;;;4946229;28;20229;-84
2022/09/16 05:04:22;;;;;;;2.43;1.30;;;;;;;;;;4954991;28;20276;-86
2022/09/16 05:06:53;;;;;;;2.37;1.37;;;;;;;;;;4963583;28;20237;-84
2022/09/16 05:09:31;;;;;;;1.83;1.50;;;;;;;;;;4955291;28;20226;-83
2022/09/16 05:12:00;;;;;;;1.73;1.20;;;;;;;;;;4986337;28;20244;-83
2022/09/16 05:14:26;;;;;;;2.10;1.20;;;;;;;;;;4978213;28;20613;-83
2022/09/16 05:16:52;;;;;;;1.77;1.00;;;;;;;;;;4963517;28;20237;-84
2022/09/16 05:19:21;;;;;;;2.93;1.20;;;;;;;;;;4967506;28;20221;-85
2022/09/16 05:21:48;;;;;;;1.83;1.10;;;;;;;;;;4969404;28;20225;-83
2022/09/16 05:24:14;;;;;;;4.03;1.10;;;;;;;;;;4946962;28;20317;-84
2022/09/16 05:26:42;;;;;;;1.00;0.90;;;;;;;;;;4984882;23;20598;-73
2022/09/16 05:29:14;;;;;;;1.63;1.00;;;;;;;;;;4971492;28;20317;-73
2022/09/16 05:31:41;;;;;;;2.53;1.20;;;;;;;;;;4963165;28;20322;-72
2022/09/16 05:34:12;;;;;;;2.27;1.03;;;;;;;;;;4924212;28;20237;-71
2022/09/16 05:36:42;;;;;;;3.40;1.20;;;;;;;;;;4971809;28;20236;-74
2022/09/16 05:39:10;;;;;;;1.47;0.80;;;;;;;;;;4967802;28;20233;-74
2022/09/16 05:41:35;;;;;;;5.83;1.30;;;;;;;;;;4931884;28;20209;-73
2022/09/16 05:44:01;;;;;;;2.83;1.70;;;;;;;;;;4943223;28;20236;-73
2022/09/16 05:46:27;;;;;;;10.43;7.63;;;;;;;;;;4945528;28;20310;-72
2022/09/16 05:48:52;;;;;;;2.47;1.40;;;;;;;;;;4944316;28;20226;-74
2022/09/16 05:51:20;;;;;;;2.07;1.13;;;;;;;;;;4945879;28;20218;-75
2022/09/16 05:53:50;;;;;;;3.93;1.30;;;;;;;;;;4929240;28;20225;-72
2022/09/16 05:56:17;;;;;;;4.43;1.40;;;;;;;;;;4947204;28;20248;-72
2022/09/16 05:58:52;;;;;;;2.33;1.30;;;;;;;;;;4945170;28;20229;-72
2022/09/16 06:01:22;;;;;;;3.50;1.40;;;;;;;;;;4958316;28;20217;-71
2022/09/16 06:03:50;;;;;;;2.57;1.23;;;;;;;;;;4965099;28;20222;-71
2022/09/16 06:06:23;;;;;;;2.70;1.37;;;;;;;;;;4946670;28;20597;-73
2022/09/16 06:08:51;;;;;;;4.37;1.30;;;;;;;;;;4967464;28;20237;-73
2022/09/16 06:11:28;;;;;;;3.60;1.50;;;;;;;;;;4961826;28;20584;-73
2022/09/16 06:13:55;;;;;;;4.03;1.40;;;;;;;;;;4976339;28;20228;-73
2022/09/16 06:16:22;;;;;;;4.40;1.50;;;;;;;;;;4958029;28;20217;-74
2022/09/16 06:18:47;;;;;;;3.60;1.10;;;;;;;;;;4969784;28;20233;-73
2022/09/16 06:21:13;;;;;;;4.13;1.40;;;;;;;;;;4947909;28;20233;-73
2022/09/16 06:23:39;;;;;;;3.10;1.50;;;;;;;;;;4965482;28;20229;-73
2022/09/16 06:26:10;;;;;;;2.67;1.40;;;;;;;;;;4958451;28;20313;-76
2022/09/16 06:28:36;;;;;;;6.87;1.27;;;;;;;;;;4954815;28;20592;-74
2022/09/16 06:31:21;;;;;;;3.17;1.60;;;;;;;;;;4943793;28;20235;-72
2022/09/16 06:33:49;;;;;;;4.27;1.30;;;;;;;;;;4962415;28;20578;-73
2022/09/16 06:36:24;;;;;;;2.23;1.13;;;;;;;;;;4928577;28;20300;-72
2022/09/16 06:38:56;;;;;;;2.77;1.20;;;;;;;;;;4975279;28;20680;-73
2022/09/16 06:41:22;;;;;;;5.30;1.10;;;;;;;;;;4941308;28;20273;-73
2022/09/16 06:43:49;;;;;;;3.40;1.10;;;;;;;;;;4961627;28;20312;-72
2022/09/16 06:46:26;;;;;;;2.73;1.30;;;;;;;;;;4959464;28;20735;-73
2022/09/16 06:48:53;;;;;;;4.70;1.00;;;;;;;;;;4960236;28;20221;-73
2022/09/16 06:51:31;;;;;;;3.53;1.20;;;;;;;;;;4962467;28;20221;-76
2022/09/16 06:54:06;;;;;;;3.83;3.30;;;;;;;;;;4960831;28;20226;-75
2022/09/16 06:56:34;;;;;;;1.73;1.00;;;;;;;;;;4931354;28;21228;-75
2022/09/16 06:59:02;;;;;;;2.47;1.10;;;;;;;;;;4961024;28;20321;-75
2022/09/16 07:01:28;;;;;;;3.20;1.23;;;;;;;;;;4932868;28;20226;-74
2022/09/16 07:03:57;;;;;;;3.40;1.20;;;;;;;;;;4973550;28;20333;-73
2022/09/16 07:06:23;;;;;;;1.53;0.87;;;;;;;;;;4969950;28;20227;-74
2022/09/16 07:08:49;;;;;;;5.03;1.23;;;;;;;;;;4933131;28;20336;-74
2022/09/16 07:11:19;;;;;;;2.37;1.20;;;;;;;;;;4952688;28;20831;-74
2022/09/16 07:13:46;;;;;;;2.03;1.13;;;;;;;;;;4946277;28;20735;-74
2022/09/16 07:16:21;;;;;;;2.87;1.10;;;;;;;;;;4957512;28;20229;-75
2022/09/16 07:18:48;;;;;;;3.77;0.90;;;;;;;;;;4931281;28;20261;-75
2022/09/16 07:21:17;;;;;;;2.17;1.13;;;;;;;;;;4958564;28;20217;-73
2022/09/16 07:23:46;;;;;;;2.67;1.13;;;;;;;;;;4965127;28;20249;-72
2022/09/16 07:26:25;;;;;;;3.47;1.23;;;;;;;;;;4958825;28;20226;-75
2022/09/16 07:28:55;;;;;;;3.30;1.23;;;;;;;;;;4970287;28;20277;-70
2022/09/16 07:31:24;;;;;;;4.23;1.27;;;;;;;;;;4961681;28;20230;-76
2022/09/16 07:33:50;;;;;;;4.07;1.50;;;;;;;;;;4978026;28;20227;-73
2022/09/16 07:36:23;;;;;;;3.27;1.23;;;;;;;;;;4962459;28;20301;-74
2022/09/16 07:38:51;;;;;;;3.23;1.33;;;;;;;;;;4951239;28;20718;-73
2022/09/16 07:41:19;;;;;;;2.37;0.93;;;;;;;;;;4959517;28;20265;-73
2022/09/16 07:43:45;;;;;;;4.37;1.27;;;;;;;;;;4967416;28;20246;-74
2022/09/16 07:46:11;;;;;;;6.20;1.47;;;;;;;;;;4977276;28;20306;-73
2022/09/16 07:48:37;;;;;;;2.90;1.10;;;;;;;;;;4971365;28;20224;-72
2022/09/16 07:51:07;;;;;;;3.53;1.53;;;;;;;;;;4953015;28;20608;-73
2022/09/16 07:53:33;;;;;;;6.27;1.73;;;;;;;;;;4946432;28;20223;-73
2022/09/16 07:56:16;;;;;;;2.17;1.07;;;;;;;;;;4962420;28;20756;-72
2022/09/16 07:58:46;;;;;;;7.07;1.23;;;;;;;;;;4938236;28;20578;-72
2022/09/16 08:01:13;;;;;;;2.10;0.90;;;;;;;;;;4958978;28;20221;-75
2022/09/16 08:03:39;;;;;;;7.13;1.70;;;;;;;;;;4954348;28;20299;-74
2022/09/16 08:06:17;;;;;;;4.60;1.30;;;;;;;;;;4941278;28;20222;-73
2022/09/16 08:08:46;;;;;;;4.80;1.30;;;;;;;;;;4945073;28;20219;-74
2022/09/16 08:11:16;;;;;;;5.20;1.20;;;;;;;;;;4961247;28;20214;-74
2022/09/16 08:13:45;;;;;;;4.03;1.30;;;;;;;;;;4978417;28;20716;-73
2022/09/16 08:16:15;;;;;;;4.33;1.13;;;;;;;;;;4975379;28;20229;-72
2022/09/16 08:18:44;;;;;;;25.00;16.60;;;;;;;;;;4983986;28;20332;-75
2022/09/16 08:21:13;;;;;;;4.33;2.40;;;;;;;;;;4962847;28;20217;-75
2022/09/16 08:23:39;;;;;;;14.10;7.67;;;;;;;;;;4959199;28;20378;-75
2022/09/16 08:26:05;;;;;;;2.63;1.10;;;;;;;;;;4969128;28;20229;-73
2022/09/16 08:28:31;;;;;;;5.90;1.07;;;;;;;;;;4974305;28;20265;-72
2022/09/16 08:31:00;;;;;;;1.97;1.00;;;;;;;;;;4973584;28;20272;-73
2022/09/16 08:33:26;;;;;;;3.13;1.00;;;;;;;;;;4972845;28;20715;-72
2022/09/16 08:36:01;;;;;;;5.73;1.07;;;;;;;;;;4956007;28;20253;-74
2022/09/16 08:38:26;;;;;;;3.70;1.20;;;;;;;;;;4956061;28;20961;-74
2022/09/16 08:40:55;;;;;;;4.67;1.17;;;;;;;;;;4950540;28;20317;-72
2022/09/16 08:43:35;;;;;;;3.63;1.20;;;;;;;;;;4971068;28;20229;-73
2022/09/16 08:46:23;;;;;;;3.17;1.00;;;;;;;;;;4972422;28;20231;-73
2022/09/16 08:48:59;;;;;;;2.27;0.90;;;;;;;;;;4959666;28;20233;-71
2022/09/16 08:51:28;;;;;;;2.83;1.00;;;;;;;;;;4976124;28;20222;-76
2022/09/16 08:53:57;;;;;;;3.63;1.03;;;;;;;;;;4941976;28;20628;-74
2022/09/16 08:56:23;;;;;;;3.20;1.10;;;;;;;;;;4961614;28;20248;-73
2022/09/16 08:58:53;;;;;;;3.47;1.10;;;;;;;;;;4950915;28;20590;-73
2022/09/16 09:01:35;;;;;;;149.80;123.00;;;;;;;;;;4958287;28;20222;-73
2022/09/16 09:04:01;;;;;;;9.67;5.93;;;;;;;;;;4957829;28;20325;-75
2022/09/16 09:07:00;;;;;;;11.63;1.90;;;;;;;;;;4947845;28;20289;-72
2022/09/16 09:09:48;;;;;;;3.43;1.20;;;;;;;;;;4954884;28;20717;-74
2022/09/16 09:12:30;;;;;;;3.17;1.10;;;;;;;;;;4969001;28;20280;-74
2022/09/16 09:15:17;;;;;;;3.80;1.27;;;;;;;;;;4949291;28;20233;-73
2022/09/16 09:17:55;;;;;;;5.00;1.30;;;;;;;;;;4954714;28;20231;-74
2022/09/16 09:20:33;;;;;;;3.00;1.27;;;;;;;;;;4976966;28;20241;-77
2022/09/16 09:23:31;;;;;;;3.20;1.10;;;;;;;;;;4960717;28;20238;-73
2022/09/16 09:26:02;;;;;;;3.03;1.10;;;;;;;;;;4950959;28;20249;-74
2022/09/16 09:28:46;;;;;;;2.77;1.17;;;;;;;;;;4954358;28;20854;-77
2022/09/16 09:31:21;;;;;;;4.75;1.27;;;;;;;;;;4971230;28;20242;-74
2022/09/16 09:34:18;;;;;;;4.00;1.30;;;;;;;;;;4972840;28;20652;-73
2022/09/16 09:37:22;;;;;;;3.10;1.15;;;;;;;;;;4963341;28;20223;-74
2022/09/16 09:40:10;;;;;;;5.60;1.55;;;;;;;;;;4966557;28;20236;-75
2022/09/16 09:42:43;;;;;;;5.85;1.83;;;;;;;;;;4973821;28;20704;-75
2022/09/16 09:45:20;;;;;;;5.47;1.40;;;;;;;;;;4961032;28;20213;-73
2022/09/16 09:47:48;;;;;;;3.70;1.20;;;;;;;;;;4957059;28;20230;-74
2022/09/16 09:50:41;;;;;;;4.20;1.13;;;;;;;;;;4939387;28;20237;-76
2022/09/16 09:53:06;;;;;;;4.13;1.30;;;;;;;;;;4942484;28;20768;-75
2022/09/16 09:55:33;;;;;;;6.30;1.30;;;;;;;;;;4964903;28;20217;-74
2022/09/16 09:58:16;;;;;;;4.13;1.42;;;;;;;;;;4969404;28;20253;-73
2022/09/16 10:00:46;;;;;;;3.38;1.30;;;;;;;;;;4935917;28;20233;-75
2022/09/16 10:03:16;;;;;;;2.35;1.15;;;;;;;;;;4940990;28;20260;-74
2022/09/16 10:05:45;;;;;;;11.82;1.83;;;;;;;;;;4953869;28;20222;-74
2022/09/16 10:08:19;;;;;;;7.88;1.50;;;;;;;;;;4961647;28;20705;-74
2022/09/16 10:10:53;;;;;;;3.42;1.50;;;;;;;;;;4968008;28;20241;-72
2022/09/16 10:13:19;;;;;;;4.93;1.60;;;;;;;;;;4963444;28;20222;-73
2022/09/16 10:15:45;;;;;;;7.15;1.30;;;;;;;;;;4955400;28;20772;-72
2022/09/16 10:18:13;;;;;;;4.50;1.30;;;;;;;;;;4942295;28;20221;-73
2022/09/16 10:20:41;;;;;;;4.50;1.50;;;;;;;;;;4941121;28;20256;-73
2022/09/16 10:23:14;;;;;;;3.38;1.00;;;;;;;;;;4945537;28;21104;-73
2022/09/16 10:25:40;;;;;;;8.77;1.65;;;;;;;;;;4930733;28;20708;-72
2022/09/16 10:28:21;;;;;;;5.60;1.27;;;;;;;;;;4959695;28;20283;-75
2022/09/16 10:30:54;;;;;;;21.00;2.80;;;;;;;;;;4949599;28;20553;-72
2022/09/16 10:33:34;;;;;;;6.20;1.70;;;;;;;;;;4954738;28;20330;-73
2022/09/16 10:36:07;;;;;;;4.30;1.73;;;;;;;;;;4954738;28;20272;-74
2022/09/16 10:38:40;;;;;;;4.30;1.40;;;;;;;;;;4932946;28;20769;-74
2022/09/16 10:41:07;;;;;;;10.93;1.60;;;;;;;;;;4933041;28;20719;-75
2022/09/16 10:43:32;;;;;;;6.57;1.80;;;;;;;;;;4962893;28;20313;-73
2022/09/16 10:45:58;;;;;;;12.67;2.10;;;;;;;;;;4963872;28;20230;-74
2022/09/16 10:48:27;;;;;;;4.18;1.25;;;;;;;;;;4939843;28;20284;-74
2022/09/16 10:50:57;;;;;;;5.90;1.40;;;;;;;;;;4972746;28;20235;-75
2022/09/16 10:53:39;;;;;;;6.00;1.50;;;;;;;;;;4947076;28;20292;-73
2022/09/16 10:56:15;;;;;;;5.95;1.42;;;;;;;;;;4940870;28;20272;-72
2022/09/16 10:58:41;;;;;;;5.65;1.45;;;;;;;;;;4963125;28;20226;-74
2022/09/16 11:01:28;;;;;;;4.63;1.40;;;;;;;;;;4934254;28;20249;-75
2022/09/16 11:04:11;;;;;;;8.23;1.60;;;;;;;;;;4970620;28;20712;-73
2022/09/16 11:07:09;;;;;;;6.72;1.50;;;;;;;;;;4976698;28;20218;-72
2022/09/16 11:09:38;;;;;;;3.75;1.48;;;;;;;;;;4957156;28;20229;-73
2022/09/16 11:12:10;;;;;;;5.57;1.40;;;;;;;;;;4975761;28;20454;-76
2022/09/16 11:14:51;;;;;;;294.33;23.48;;;;;;;;;;4962489;28;20662;-76
2022/09/16 11:17:32;;;;;;;3.55;1.25;;;;;;;;;;4963306;28;20576;-74
2022/09/16 11:20:14;;;;;;;120.53;10.02;;;;;;;;;;4970058;28;20225;-72
2022/09/16 11:22:43;;;;;;;9.32;1.70;;;;;;;;;;4973030;28;20234;-74
2022/09/16 11:25:23;;;;;;;27.10;2.80;;;;;;;;;;4982555;28;20222;-75
2022/09/16 11:27:51;;;;;;;14.75;2.00;;;;;;;;;;4983277;28;20222;-76
2022/09/16 11:30:21;;;;;;;7.60;1.52;;;;;;;;;;4972131;28;20306;-73
2022/09/16 11:32:55;;;;;;;8.00;1.27;;;;;;;;;;4955045;28;20608;-73
2022/09/16 11:35:31;;;;;;;20.45;2.40;;;;;;;;;;4955788;28;20364;-75
2022/09/16 11:38:21;;;;;;;9.30;1.38;;;;;;;;;;4978726;28;20956;-74
2022/09/16 11:41:01;;;;;;;34.33;3.20;;;;;;;;;;4960967;28;20241;-72
2022/09/16 11:43:42;;;;;;;2.80;1.00;;;;;;;;;;4939684;28;20674;-76
2022/09/16 11:46:13;;;;;;;7.78;1.65;;;;;;;;;;4956237;28;20260;-74
2022/09/16 11:48:56;;;;;;;25.67;2.80;;;;;;;;;;4983911;28;20258;-75
2022/09/16 11:51:40;;;;;;;73.72;6.13;;;;;;;;;;4970264;28;20238;-73
2022/09/16 11:54:39;;;;;;;27.90;3.17;;;;;;;;;;4960214;28;20226;-72
2022/09/16 11:57:08;;;;;;;6.28;1.65;;;;;;;;;;4956615;28;20281;-75
2022/09/16 11:59:41;;;;;;;8.32;1.70;;;;;;;;;;4943720;28;20285;-74
2022/09/16 12:02:48;;;;;;;7.22;1.50;;;;;;;;;;4964950;28;20281;-74
2022/09/16 12:05:17;;;;;;;4.28;1.15;;;;;;;;;;4962070;28;20600;-74
2022/09/16 12:08:21;;;;;;;2.88;1.13;;;;;;;;;;4971692;28;20306;-74
2022/09/16 12:11:01;;;;;;;4.70;1.17;;;;;;;;;;4960114;28;20256;-77
2022/09/16 12:13:39;;;;;;;5.90;1.35;;;;;;;;;;4950585;28;20717;-75
2022/09/16 12:16:19;;;;;;;5.57;1.23;;;;;;;;;;4965026;28;20650;-74
2022/09/16 12:18:54;;;;;;;3.90;1.10;;;;;;;;;;4952362;28;20226;-77
2022/09/16 12:21:49;;;;;;;3.80;1.15;;;;;;;;;;4938512;28;20261;-77
2022/09/16 12:24:23;;;;;;;31.85;3.75;;;;;;;;;;4938056;28;20636;-74
2022/09/16 12:26:56;;;;;;;15.07;2.15;;;;;;;;;;4942014;28;20233;-75
2022/09/16 12:29:40;;;;;;;54.97;4.85;;;;;;;;;;4963368;28;20309;-76
2022/09/16 12:32:17;;;;;;;23.80;3.40;;;;;;;;;;4974221;28;20577;-75
2022/09/16 12:35:01;;;;;;;7.15;0.90;;;;;;;;;;4964827;28;20217;-75
2022/09/16 12:37:35;;;;;;;5.07;1.25;;;;;;;;;;4978887;28;20720;-73
2022/09/16 12:40:01;;;;;;;4.03;0.85;;;;;;;;;;4972473;28;20254;-74
2022/09/16 12:42:51;;;;;;;1.47;0.60;;;;;;;;;;4954556;28;20699;-73
2022/09/16 12:45:48;;;;;;;2.58;0.60;;;;;;;;;;4981365;28;20704;-73
2022/09/16 12:48:36;;;;;;;2.08;0.50;;;;;;;;;;4936457;28;20218;-73
2022/09/16 12:51:39;;;;;;;0.50;0.47;;;;;;;;;;4944742;28;20234;-72
2022/09/16 12:54:22;;;;;;;1.47;0.60;;;;;;;;;;4965976;28;20653;-73
2022/09/16 12:57:19;;;;;;;6.23;0.67;;;;;;;;;;4969880;28;20772;-73
2022/09/16 13:00:09;;;;;;;2.67;0.80;;;;;;;;;;4956472;28;20727;-73
2022/09/16 13:02:36;;;;;;;2.47;0.70;;;;;;;;;;4971335;28;20310;-74
2022/09/16 13:05:26;;;;;;;2.67;1.00;;;;;;;;;;4945933;28;20261;-73
2022/09/16 13:07:54;;;;;;;2.23;0.70;;;;;;;;;;4949194;28;20258;-76
2022/09/16 13:10:34;;;;;;;3.50;0.93;;;;;;;;;;4963559;28;21029;-74
2022/09/16 13:13:01;;;;;;;4.40;1.10;;;;;;;;;;4946658;28;20485;-76
2022/09/16 13:15:27;;;;;;;3.23;1.10;;;;;;;;;;4973670;28;20629;-75
2022/09/16 13:17:53;;;;;;;2.33;0.87;;;;;;;;;;4972229;28;20221;-76
2022/09/16 13:20:31;;;;;;;3.43;0.80;;;;;;;;;;4953985;28;20238;-77
2022/09/16 13:23:09;;;;;;;3.03;1.00;;;;;;;;;;4960142;28;20220;-78
2022/09/16 13:25:50;;;;;;;3.20;0.90;;;;;;;;;;4968872;28;20292;-77
2022/09/16 13:28:37;;;;;;;9.83;1.37;;;;;;;;;;4970339;28;20221;-77
2022/09/16 13:31:11;;;;;;;3.97;1.23;;;;;;;;;;4971527;28;20236;-78
2022/09/16 13:33:44;;;;;;;4.47;1.47;;;;;;;;;;4969547;28;20307;-75
2022/09/16 13:36:18;;;;;;;3.50;1.20;;;;;;;;;;4936925;28;20229;-74
2022/09/16 13:38:50;;;;;;;3.43;1.30;;;;;;;;;;4972238;28;20737;-75
2022/09/16 13:41:28;;;;;;;2.55;1.13;;;;;;;;;;4974161;28;20728;-76
2022/09/16 13:43:53;;;;;;;10.60;1.40;;;;;;;;;;4966478;28;20238;-77
2022/09/16 13:46:30;;;;;;;7.97;1.40;;;;;;;;;;4951093;28;20230;-77
2022/09/16 13:49:09;;;;;;;4.87;1.10;;;;;;;;;;4949124;28;20252;-77
2022/09/16 13:51:43;;;;;;;4.60;1.20;;;;;;;;;;4972557;28;20226;-76
2022/09/16 13:54:23;;;;;;;3.17;1.13;;;;;;;;;;4950986;28;20230;-78
2022/09/16 13:57:18;;;;;;;4.53;1.27;;;;;;;;;;4978551;28;20259;-79
2022/09/16 13:59:58;;;;;;;4.15;1.35;;;;;;;;;;4960353;28;20822;-76
2022/09/16 14:02:43;;;;;;;4.45;1.13;;;;;;;;;;4976685;28;20233;-74
2022/09/16 14:05:14;;;;;;;4.18;1.40;;;;;;;;;;4957768;28;20297;-77
2022/09/16 14:07:43;;;;;;;6.68;1.30;;;;;;;;;;4987086;28;20233;-78
2022/09/16 14:10:17;;;;;;;4.03;1.38;;;;;;;;;;4970527;28;20240;-76
2022/09/16 14:12:43;;;;;;;3.70;1.20;;;;;;;;;;4966816;28;20226;-75
2022/09/16 14:15:09;;;;;;;5.27;1.50;;;;;;;;;;4953701;28;20213;-76
2022/09/16 14:17:51;;;;;;;3.10;1.30;;;;;;;;;;4918145;28;20229;-74
2022/09/16 14:20:19;;;;;;;4.83;1.83;;;;;;;;;;4933057;28;20301;-72
2022/09/16 14:22:44;;;;;;;6.27;2.20;;;;;;;;;;4953820;28;20246;-73
2022/09/16 14:25:28;;;;;;;5.93;1.70;;;;;;;;;;4952686;28;20221;-74
2022/09/16 14:28:16;;;;;;;6.50;1.43;;;;;;;;;;4969010;28;20221;-75
2022/09/16 14:30:59;;;;;;;8.90;1.37;;;;;;;;;;4963969;28;20289;-72
2022/09/16 14:33:28;;;;;;;3.93;1.20;;;;;;;;;;4928434;28;20313;-75
2022/09/16 14:35:54;;;;;;;5.47;1.63;;;;;;;;;;4960076;28;20884;-76
2022/09/16 14:38:20;;;;;;;4.40;1.47;;;;;;;;;;4939079;28;20607;-73
2022/09/16 14:40:46;;;;;;;5.77;1.70;;;;;;;;;;4977373;28;20256;-75
2022/09/16 14:43:17;;;;;;;6.17;2.03;;;;;;;;;;4961878;28;20219;-75
2022/09/16 14:45:45;;;;;;;10.73;2.10;;;;;;;;;;4965733;28;20569;-75
2022/09/16 14:48:11;;;;;;;6.50;2.47;;;;;;;;;;4963223;28;20236;-76
2022/09/16 14:50:41;;;;;;;7.77;2.33;;;;;;;;;;4959386;28;20722;-75
2022/09/16 14:53:25;;;;;;;9.93;2.27;;;;;;;;;;4972765;28;20325;-74
2022/09/16 14:55:53;;;;;;;13.10;2.70;;;;;;;;;;4970901;28;20316;-74
2022/09/16 14:58:19;;;;;;;13.37;2.90;;;;;;;;;;4930741;28;20242;-74
2022/09/16 15:00:48;;;;;;;9.60;2.43;;;;;;;;;;4964069;28;20738;-74
2022/09/16 15:03:17;;;;;;;9.00;2.43;;;;;;;;;;4959821;28;20589;-75
2022/09/16 15:05:45;;;;;;;11.27;2.67;;;;;;;;;;4972828;28;20222;-74
2022/09/16 15:08:22;;;;;;;15.90;2.87;;;;;;;;;;4938878;28;20229;-75
2022/09/16 15:10:50;;;;;;;13.97;2.80;;;;;;;;;;4949274;28;20230;-73
2022/09/16 15:13:15;;;;;;;9.43;2.83;;;;;;;;;;4946702;28;20783;-74
2022/09/16 15:15:53;;;;;;;12.67;3.47;;;;;;;;;;4930486;28;20269;-75
2022/09/16 15:18:25;;;;;;;12.83;3.00;;;;;;;;;;4962110;28;20239;-73